sensor_id;sensor_type;location;lat;lon;timestamp;P1;durP1;ratioP1;P2;durP2;ratioP2
56130;SDS011;42000;44.774;20.506;2023-02-28T06:18:02;29.08;;;16.33;;
56130;SDS011;42000;44.774;20.506;2023-02-28T06:20:28;32.20;;;17.85;;
56130;SDS011;42000;44.774;20.506;2023-02-28T06:22:55;33.63;;;17.65;;
56130;SDS011;42000;44.774;20.506;2023-02-28T06:25:23;33.22;;;17.88;;
56130;SDS011;42000;44.774;20.506;2023-02-28T06:27:49;33.17;;;17.83;;
56130;SDS011;42000;44.774;20.506;2023-02-28T06:30:16;32.33;;;17.60;;
56130;SDS011;42000;44.774;20.506;2023-02-28T06:32:42;33.35;;;18.35;;
56130;SDS011;42000;44.774;20.506;2023-02-28T06:35:08;36.25;;;21.15;;
56130;SDS011;42000;44.774;20.506;2023-02-28T06:37:34;36.13;;;19.88;;
56130;SDS011;42000;44.774;20.506;2023-02-28T06:40:01;37.63;;;18.88;;
56130;SDS011;42000;44.774;20.506;2023-02-28T06:42:27;37.25;;;19.20;;
56130;SDS011;42000;44.774;20.506;2023-02-28T06:44:55;31.58;;;18.30;;
56130;SDS011;42000;44.774;20.506;2023-02-28T06:47:22;34.63;;;18.88;;
56130;SDS011;42000;44.774;20.506;2023-02-28T06:49:48;35.35;;;19.20;;
56130;SDS011;42000;44.774;20.506;2023-02-28T06:52:14;35.13;;;19.70;;
56130;SDS011;42000;44.774;20.506;2023-02-28T06:54:40;32.97;;;18.60;;
56130;SDS011;42000;44.774;20.506;2023-02-28T06:57:06;38.70;;;22.83;;
56130;SDS011;42000;44.774;20.506;2023-02-28T06:59:32;38.35;;;22.38;;
56130;SDS011;42000;44.774;20.506;2023-02-28T07:02:00;34.83;;;20.33;;
56130;SDS011;42000;44.774;20.506;2023-02-28T07:04:27;37.08;;;20.15;;
56130;SDS011;42000;44.774;20.506;2023-02-28T07:06:54;36.50;;;20.15;;
56130;SDS011;42000;44.774;20.506;2023-02-28T07:09:21;35.65;;;19.73;;
56130;SDS011;42000;44.774;20.506;2023-02-28T07:11:47;38.17;;;21.30;;
56130;SDS011;42000;44.774;20.506;2023-02-28T07:14:13;39.58;;;24.50;;
56130;SDS011;42000;44.774;20.506;2023-02-28T07:16:40;44.90;;;28.88;;
56130;SDS011;42000;44.774;20.506;2023-02-28T07:19:06;36.35;;;20.75;;
56130;SDS011;42000;44.774;20.506;2023-02-28T07:21:32;33.10;;;19.15;;
56130;SDS011;42000;44.774;20.506;2023-02-28T07:23:58;36.50;;;19.17;;
56130;SDS011;42000;44.774;20.506;2023-02-28T07:26:24;34.00;;;18.90;;
56130;SDS011;42000;44.774;20.506;2023-02-28T07:28:50;31.58;;;18.08;;
56130;SDS011;42000;44.774;20.506;2023-02-28T07:31:16;32.60;;;18.38;;
56130;SDS011;42000;44.774;20.506;2023-02-28T07:33:43;45.65;;;23.42;;
56130;SDS011;42000;44.774;20.506;2023-02-28T07:36:10;34.30;;;19.13;;
56130;SDS011;42000;44.774;20.506;2023-02-28T07:38:40;38.30;;;20.10;;
56130;SDS011;42000;44.774;20.506;2023-02-28T07:41:06;41.33;;;23.42;;
56130;SDS011;42000;44.774;20.506;2023-02-28T07:43:33;39.35;;;22.08;;
56130;SDS011;42000;44.774;20.506;2023-02-28T07:46:03;35.58;;;19.60;;
56130;SDS011;42000;44.774;20.506;2023-02-28T07:48:29;36.15;;;20.50;;
56130;SDS011;42000;44.774;20.506;2023-02-28T07:50:56;32.97;;;19.23;;
56130;SDS011;42000;44.774;20.506;2023-02-28T07:53:22;33.83;;;19.70;;
56130;SDS011;42000;44.774;20.506;2023-02-28T07:55:48;39.53;;;22.15;;
56130;SDS011;42000;44.774;20.506;2023-02-28T07:58:14;60.53;;;32.50;;
56130;SDS011;42000;44.774;20.506;2023-02-28T08:00:40;206.30;;;84.85;;
56130;SDS011;42000;44.774;20.506;2023-02-28T08:03:08;90.60;;;42.40;;
56130;SDS011;42000;44.774;20.506;2023-02-28T08:05:37;82.60;;;41.35;;
56130;SDS011;42000;44.774;20.506;2023-02-28T08:08:03;41.97;;;24.17;;
56130;SDS011;42000;44.774;20.506;2023-02-28T08:10:29;41.45;;;23.92;;
56130;SDS011;42000;44.774;20.506;2023-02-28T08:12:55;79.38;;;47.25;;
56130;SDS011;42000;44.774;20.506;2023-02-28T08:15:21;65.35;;;43.35;;
56130;SDS011;42000;44.774;20.506;2023-02-28T08:17:47;38.80;;;23.48;;
56130;SDS011;42000;44.774;20.506;2023-02-28T08:20:13;39.70;;;22.70;;
56130;SDS011;42000;44.774;20.506;2023-02-28T08:22:40;40.88;;;23.63;;
56130;SDS011;42000;44.774;20.506;2023-02-28T08:25:07;41.65;;;22.25;;
56130;SDS011;42000;44.774;20.506;2023-02-28T08:27:33;43.53;;;23.73;;
56130;SDS011;42000;44.774;20.506;2023-02-28T08:29:59;57.58;;;35.17;;
56130;SDS011;42000;44.774;20.506;2023-02-28T08:32:25;57.80;;;31.55;;
56130;SDS011;42000;44.774;20.506;2023-02-28T08:34:51;54.50;;;29.52;;
56130;SDS011;42000;44.774;20.506;2023-02-28T08:37:17;49.13;;;26.65;;
56130;SDS011;42000;44.774;20.506;2023-02-28T08:39:43;51.53;;;28.20;;
56130;SDS011;42000;44.774;20.506;2023-02-28T08:42:09;50.88;;;27.23;;
56130;SDS011;42000;44.774;20.506;2023-02-28T08:44:35;46.95;;;26.58;;
56130;SDS011;42000;44.774;20.506;2023-02-28T08:47:01;48.08;;;27.42;;
56130;SDS011;42000;44.774;20.506;2023-02-28T08:49:27;42.55;;;24.65;;
56130;SDS011;42000;44.774;20.506;2023-02-28T08:51:53;49.25;;;25.85;;
56130;SDS011;42000;44.774;20.506;2023-02-28T08:54:22;48.17;;;27.63;;
56130;SDS011;42000;44.774;20.506;2023-02-28T08:56:48;49.60;;;28.77;;
56130;SDS011;42000;44.774;20.506;2023-02-28T08:59:14;45.63;;;26.35;;
56130;SDS011;42000;44.774;20.506;2023-02-28T09:01:40;43.60;;;24.08;;
56130;SDS011;42000;44.774;20.506;2023-02-28T09:04:06;42.53;;;23.85;;
56130;SDS011;42000;44.774;20.506;2023-02-28T09:06:34;50.05;;;26.33;;
56130;SDS011;42000;44.774;20.506;2023-02-28T09:09:00;47.88;;;25.75;;
56130;SDS011;42000;44.774;20.506;2023-02-28T09:11:28;44.05;;;25.10;;
56130;SDS011;42000;44.774;20.506;2023-02-28T09:13:54;45.55;;;25.55;;
56130;SDS011;42000;44.774;20.506;2023-02-28T09:16:21;34.53;;;20.80;;
56130;SDS011;42000;44.774;20.506;2023-02-28T09:18:47;43.85;;;25.40;;
56130;SDS011;42000;44.774;20.506;2023-02-28T09:21:17;41.08;;;23.45;;
56130;SDS011;42000;44.774;20.506;2023-02-28T09:23:44;44.22;;;25.55;;
56130;SDS011;42000;44.774;20.506;2023-02-28T09:26:18;47.55;;;27.55;;
56130;SDS011;42000;44.774;20.506;2023-02-28T09:28:44;36.97;;;22.05;;
56130;SDS011;42000;44.774;20.506;2023-02-28T09:31:14;60.90;;;32.67;;
56130;SDS011;42000;44.774;20.506;2023-02-28T09:33:41;105.07;;;53.88;;
56130;SDS011;42000;44.774;20.506;2023-02-28T09:36:07;56.92;;;30.15;;
56130;SDS011;42000;44.774;20.506;2023-02-28T09:38:33;87.80;;;42.40;;
56130;SDS011;42000;44.774;20.506;2023-02-28T09:41:02;98.72;;;49.28;;
56130;SDS011;42000;44.774;20.506;2023-02-28T09:43:29;58.75;;;34.08;;
56130;SDS011;42000;44.774;20.506;2023-02-28T09:48:44;41.63;;;22.33;;
56130;SDS011;42000;44.774;20.506;2023-02-28T09:51:22;40.92;;;21.40;;
56130;SDS011;42000;44.774;20.506;2023-02-28T09:53:52;35.10;;;20.83;;
56130;SDS011;42000;44.774;20.506;2023-02-28T09:56:20;35.17;;;20.40;;
56130;SDS011;42000;44.774;20.506;2023-02-28T09:58:53;34.20;;;20.48;;
56130;SDS011;42000;44.774;20.506;2023-02-28T10:04:10;56.38;;;32.45;;
56130;SDS011;42000;44.774;20.506;2023-02-28T10:06:47;62.38;;;34.15;;
56130;SDS011;42000;44.774;20.506;2023-02-28T10:09:48;48.15;;;26.88;;
56130;SDS011;42000;44.774;20.506;2023-02-28T10:12:06;40.42;;;25.10;;
56130;SDS011;42000;44.774;20.506;2023-02-28T10:14:34;44.20;;;25.30;;
56130;SDS011;42000;44.774;20.506;2023-02-28T10:17:05;45.63;;;26.63;;
56130;SDS011;42000;44.774;20.506;2023-02-28T10:19:35;42.83;;;25.65;;
56130;SDS011;42000;44.774;20.506;2023-02-28T10:22:15;37.72;;;23.25;;
56130;SDS011;42000;44.774;20.506;2023-02-28T10:24:46;37.83;;;22.55;;
56130;SDS011;42000;44.774;20.506;2023-02-28T10:29:39;41.63;;;21.85;;
56130;SDS011;42000;44.774;20.506;2023-02-28T10:32:06;38.33;;;22.33;;
56130;SDS011;42000;44.774;20.506;2023-02-28T10:34:32;39.55;;;23.25;;
56130;SDS011;42000;44.774;20.506;2023-02-28T10:36:58;37.70;;;23.00;;
56130;SDS011;42000;44.774;20.506;2023-02-28T10:39:45;49.45;;;24.42;;
56130;SDS011;42000;44.774;20.506;2023-02-28T10:42:44;43.42;;;23.45;;
56130;SDS011;42000;44.774;20.506;2023-02-28T10:45:10;41.08;;;24.50;;
56130;SDS011;42000;44.774;20.506;2023-02-28T10:47:39;38.70;;;23.02;;
56130;SDS011;42000;44.774;20.506;2023-02-28T10:50:11;40.92;;;23.42;;
56130;SDS011;42000;44.774;20.506;2023-02-28T10:52:52;37.58;;;22.42;;
56130;SDS011;42000;44.774;20.506;2023-02-28T10:55:23;47.58;;;25.90;;
56130;SDS011;42000;44.774;20.506;2023-02-28T10:57:50;38.30;;;22.90;;
56130;SDS011;42000;44.774;20.506;2023-02-28T11:00:18;38.85;;;23.00;;
56130;SDS011;42000;44.774;20.506;2023-02-28T11:02:45;45.25;;;26.20;;
56130;SDS011;42000;44.774;20.506;2023-02-28T11:08:13;45.10;;;25.98;;
56130;SDS011;42000;44.774;20.506;2023-02-28T11:10:44;52.47;;;30.88;;
56130;SDS011;42000;44.774;20.506;2023-02-28T11:13:16;52.45;;;31.42;;
56130;SDS011;42000;44.774;20.506;2023-02-28T11:15:45;46.20;;;26.92;;
56130;SDS011;42000;44.774;20.506;2023-02-28T11:18:23;34.75;;;21.75;;
56130;SDS011;42000;44.774;20.506;2023-02-28T11:20:50;49.70;;;28.00;;
56130;SDS011;42000;44.774;20.506;2023-02-28T11:23:17;51.53;;;30.05;;
56130;SDS011;42000;44.774;20.506;2023-02-28T11:25:48;39.00;;;26.15;;
56130;SDS011;42000;44.774;20.506;2023-02-28T11:33:29;38.35;;;24.10;;
56130;SDS011;42000;44.774;20.506;2023-02-28T11:36:03;42.05;;;26.33;;
56130;SDS011;42000;44.774;20.506;2023-02-28T11:38:30;41.05;;;24.35;;
56130;SDS011;42000;44.774;20.506;2023-02-28T11:49:03;44.80;;;27.58;;
56130;SDS011;42000;44.774;20.506;2023-02-28T11:58:53;49.78;;;29.17;;
56130;SDS011;42000;44.774;20.506;2023-02-28T12:06:43;48.80;;;28.48;;
56130;SDS011;42000;44.774;20.506;2023-02-28T12:11:54;49.22;;;29.95;;
56130;SDS011;42000;44.774;20.506;2023-02-28T12:20:17;53.80;;;31.20;;
56130;SDS011;42000;44.774;20.506;2023-02-28T12:22:52;54.55;;;31.92;;
56130;SDS011;42000;44.774;20.506;2023-02-28T12:25:39;59.55;;;31.77;;
56130;SDS011;42000;44.774;20.506;2023-02-28T12:28:12;57.55;;;31.58;;
56130;SDS011;42000;44.774;20.506;2023-02-28T12:31:26;51.78;;;26.15;;
56130;SDS011;42000;44.774;20.506;2023-02-28T12:33:27;46.90;;;27.65;;
56130;SDS011;42000;44.774;20.506;2023-02-28T12:35:55;48.78;;;27.25;;
56130;SDS011;42000;44.774;20.506;2023-02-28T12:38:22;45.83;;;27.88;;
56130;SDS011;42000;44.774;20.506;2023-02-28T12:40:54;50.38;;;28.45;;
56130;SDS011;42000;44.774;20.506;2023-02-28T12:43:22;48.10;;;27.60;;
56130;SDS011;42000;44.774;20.506;2023-02-28T12:45:57;57.63;;;33.35;;
56130;SDS011;42000;44.774;20.506;2023-02-28T12:48:26;56.83;;;32.65;;
56130;SDS011;42000;44.774;20.506;2023-02-28T12:50:53;56.10;;;31.60;;
56130;SDS011;42000;44.774;20.506;2023-02-28T12:53:27;57.90;;;31.98;;
56130;SDS011;42000;44.774;20.506;2023-02-28T12:58:33;78.00;;;39.28;;
56130;SDS011;42000;44.774;20.506;2023-02-28T13:11:05;57.95;;;34.53;;
56130;SDS011;42000;44.774;20.506;2023-02-28T13:13:31;68.55;;;36.65;;
56130;SDS011;42000;44.774;20.506;2023-02-28T13:15:59;76.43;;;40.40;;
56130;SDS011;42000;44.774;20.506;2023-02-28T13:20:58;69.05;;;38.90;;
56130;SDS011;42000;44.774;20.506;2023-02-28T13:23:38;105.20;;;52.97;;
56130;SDS011;42000;44.774;20.506;2023-02-28T13:26:04;96.40;;;47.78;;
56130;SDS011;42000;44.774;20.506;2023-02-28T13:31:15;65.40;;;36.28;;
56130;SDS011;42000;44.774;20.506;2023-02-28T13:36:28;84.93;;;45.20;;
56130;SDS011;42000;44.774;20.506;2023-02-28T13:38:57;105.00;;;52.70;;
56130;SDS011;42000;44.774;20.506;2023-02-28T13:46:27;69.53;;;37.20;;
56130;SDS011;42000;44.774;20.506;2023-02-28T13:48:53;97.57;;;49.72;;
56130;SDS011;42000;44.774;20.506;2023-02-28T13:51:35;59.78;;;34.42;;
56130;SDS011;42000;44.774;20.506;2023-02-28T13:59:45;44.63;;;26.30;;
56130;SDS011;42000;44.774;20.506;2023-02-28T14:07:28;39.13;;;23.25;;
56130;SDS011;42000;44.774;20.506;2023-02-28T14:09:57;38.78;;;22.13;;
56130;SDS011;42000;44.774;20.506;2023-02-28T14:15:25;42.97;;;23.40;;
56130;SDS011;42000;44.774;20.506;2023-02-28T14:17:53;31.15;;;19.08;;
56130;SDS011;42000;44.774;20.506;2023-02-28T14:20:20;28.33;;;16.50;;
56130;SDS011;42000;44.774;20.506;2023-02-28T14:23:13;30.40;;;17.77;;
56130;SDS011;42000;44.774;20.506;2023-02-28T14:31:22;32.25;;;18.10;;
56130;SDS011;42000;44.774;20.506;2023-02-28T14:36:21;38.15;;;20.83;;
56130;SDS011;42000;44.774;20.506;2023-02-28T14:38:57;77.88;;;34.15;;
56130;SDS011;42000;44.774;20.506;2023-02-28T14:43:54;35.25;;;21.23;;
56130;SDS011;42000;44.774;20.506;2023-02-28T14:46:21;30.20;;;18.48;;
56130;SDS011;42000;44.774;20.506;2023-02-28T14:48:48;26.15;;;16.73;;
56130;SDS011;42000;44.774;20.506;2023-02-28T14:51:18;25.90;;;16.75;;
56130;SDS011;42000;44.774;20.506;2023-02-28T14:53:45;27.23;;;16.00;;
56130;SDS011;42000;44.774;20.506;2023-02-28T14:56:21;25.27;;;16.17;;
56130;SDS011;42000;44.774;20.506;2023-02-28T14:58:51;27.90;;;17.92;;
56130;SDS011;42000;44.774;20.506;2023-02-28T15:01:19;25.85;;;15.68;;
56130;SDS011;42000;44.774;20.506;2023-02-28T15:03:46;26.10;;;15.10;;
56130;SDS011;42000;44.774;20.506;2023-02-28T15:06:13;24.70;;;15.10;;
56130;SDS011;42000;44.774;20.506;2023-02-28T15:08:40;34.42;;;19.13;;
56130;SDS011;42000;44.774;20.506;2023-02-28T15:11:07;51.50;;;25.25;;
56130;SDS011;42000;44.774;20.506;2023-02-28T15:13:42;46.85;;;23.30;;
56130;SDS011;42000;44.774;20.506;2023-02-28T15:18:47;37.17;;;19.45;;
56130;SDS011;42000;44.774;20.506;2023-02-28T15:21:24;40.75;;;20.73;;
56130;SDS011;42000;44.774;20.506;2023-02-28T15:26:38;42.30;;;23.52;;
56130;SDS011;42000;44.774;20.506;2023-02-28T15:29:05;44.15;;;24.35;;
56130;SDS011;42000;44.774;20.506;2023-02-28T15:31:34;43.38;;;25.75;;
56130;SDS011;42000;44.774;20.506;2023-02-28T15:34:04;48.42;;;28.08;;
56130;SDS011;42000;44.774;20.506;2023-02-28T15:36:32;40.08;;;22.77;;
56130;SDS011;42000;44.774;20.506;2023-02-28T15:39:01;35.88;;;21.20;;
56130;SDS011;42000;44.774;20.506;2023-02-28T15:41:30;33.03;;;20.33;;
56130;SDS011;42000;44.774;20.506;2023-02-28T15:44:15;52.58;;;26.50;;
56130;SDS011;42000;44.774;20.506;2023-02-28T15:46:43;43.13;;;22.80;;
56130;SDS011;42000;44.774;20.506;2023-02-28T15:49:16;32.45;;;19.48;;
56130;SDS011;42000;44.774;20.506;2023-02-28T15:51:44;31.65;;;19.42;;
56130;SDS011;42000;44.774;20.506;2023-02-28T15:54:14;33.53;;;19.05;;
56130;SDS011;42000;44.774;20.506;2023-02-28T15:56:45;31.40;;;18.80;;
56130;SDS011;42000;44.774;20.506;2023-02-28T15:59:18;34.28;;;19.38;;
56130;SDS011;42000;44.774;20.506;2023-02-28T16:01:46;36.30;;;20.85;;
56130;SDS011;42000;44.774;20.506;2023-02-28T16:04:14;32.08;;;19.40;;
56130;SDS011;42000;44.774;20.506;2023-02-28T16:06:47;33.55;;;20.20;;
56130;SDS011;42000;44.774;20.506;2023-02-28T16:09:26;37.22;;;21.63;;
56130;SDS011;42000;44.774;20.506;2023-02-28T16:11:53;32.45;;;19.88;;
56130;SDS011;42000;44.774;20.506;2023-02-28T16:14:26;34.40;;;20.15;;
56130;SDS011;42000;44.774;20.506;2023-02-28T16:17:02;36.50;;;20.48;;
56130;SDS011;42000;44.774;20.506;2023-02-28T16:19:29;35.38;;;22.25;;
56130;SDS011;42000;44.774;20.506;2023-02-28T16:21:56;37.63;;;21.73;;
56130;SDS011;42000;44.774;20.506;2023-02-28T16:24:22;33.97;;;20.60;;
56130;SDS011;42000;44.774;20.506;2023-02-28T16:26:48;31.80;;;19.45;;
56130;SDS011;42000;44.774;20.506;2023-02-28T16:29:27;31.38;;;19.00;;
56130;SDS011;42000;44.774;20.506;2023-02-28T16:31:54;32.63;;;19.95;;
56130;SDS011;42000;44.774;20.506;2023-02-28T16:34:21;31.52;;;18.80;;
56130;SDS011;42000;44.774;20.506;2023-02-28T16:36:47;34.10;;;20.00;;
56130;SDS011;42000;44.774;20.506;2023-02-28T16:39:14;34.13;;;19.92;;
56130;SDS011;42000;44.774;20.506;2023-02-28T16:41:44;35.35;;;20.52;;
56130;SDS011;42000;44.774;20.506;2023-02-28T16:44:13;35.78;;;21.70;;
56130;SDS011;42000;44.774;20.506;2023-02-28T16:46:39;34.67;;;20.42;;
56130;SDS011;42000;44.774;20.506;2023-02-28T16:49:10;43.30;;;23.10;;
56130;SDS011;42000;44.774;20.506;2023-02-28T16:51:36;45.92;;;25.92;;
56130;SDS011;42000;44.774;20.506;2023-02-28T16:54:02;41.85;;;25.45;;
56130;SDS011;42000;44.774;20.506;2023-02-28T16:56:28;42.65;;;24.70;;
56130;SDS011;42000;44.774;20.506;2023-02-28T16:58:55;38.75;;;22.25;;
56130;SDS011;42000;44.774;20.506;2023-02-28T17:01:23;41.85;;;22.95;;
56130;SDS011;42000;44.774;20.506;2023-02-28T17:03:52;44.63;;;23.10;;
56130;SDS011;42000;44.774;20.506;2023-02-28T17:06:25;41.50;;;23.60;;
56130;SDS011;42000;44.774;20.506;2023-02-28T17:08:52;43.92;;;25.35;;
56130;SDS011;42000;44.774;20.506;2023-02-28T17:11:18;46.70;;;26.27;;
56130;SDS011;42000;44.774;20.506;2023-02-28T17:13:47;55.88;;;30.00;;
56130;SDS011;42000;44.774;20.506;2023-02-28T17:16:35;53.30;;;29.98;;
56130;SDS011;42000;44.774;20.506;2023-02-28T17:19:04;57.03;;;31.38;;
56130;SDS011;42000;44.774;20.506;2023-02-28T17:21:31;84.13;;;40.47;;
56130;SDS011;42000;44.774;20.506;2023-02-28T17:23:59;88.43;;;41.03;;
56130;SDS011;42000;44.774;20.506;2023-02-28T17:26:25;60.00;;;31.88;;
56130;SDS011;42000;44.774;20.506;2023-02-28T17:28:53;60.00;;;33.97;;
56130;SDS011;42000;44.774;20.506;2023-02-28T17:31:21;54.38;;;29.38;;
56130;SDS011;42000;44.774;20.506;2023-02-28T17:33:47;57.08;;;30.85;;
56130;SDS011;42000;44.774;20.506;2023-02-28T17:36:14;50.72;;;29.02;;
56130;SDS011;42000;44.774;20.506;2023-02-28T17:38:40;52.75;;;29.95;;
56130;SDS011;42000;44.774;20.506;2023-02-28T17:41:07;48.38;;;27.88;;
56130;SDS011;42000;44.774;20.506;2023-02-28T17:43:34;49.90;;;28.52;;
56130;SDS011;42000;44.774;20.506;2023-02-28T17:46:00;52.72;;;28.77;;
56130;SDS011;42000;44.774;20.506;2023-02-28T17:48:26;49.10;;;28.58;;
56130;SDS011;42000;44.774;20.506;2023-02-28T17:50:52;51.88;;;29.58;;
56130;SDS011;42000;44.774;20.506;2023-02-28T17:53:19;50.40;;;29.30;;
56130;SDS011;42000;44.774;20.506;2023-02-28T17:55:48;57.97;;;30.58;;
56130;SDS011;42000;44.774;20.506;2023-02-28T17:58:14;52.17;;;30.30;;
56130;SDS011;42000;44.774;20.506;2023-02-28T18:00:40;56.85;;;31.52;;
56130;SDS011;42000;44.774;20.506;2023-02-28T18:03:06;58.75;;;32.00;;
56130;SDS011;42000;44.774;20.506;2023-02-28T18:05:33;74.70;;;39.33;;
56130;SDS011;42000;44.774;20.506;2023-02-28T18:08:01;79.30;;;40.33;;
56130;SDS011;42000;44.774;20.506;2023-02-28T18:10:27;70.63;;;38.15;;
56130;SDS011;42000;44.774;20.506;2023-02-28T18:12:53;71.15;;;39.83;;
56130;SDS011;42000;44.774;20.506;2023-02-28T18:15:20;76.40;;;41.38;;
56130;SDS011;42000;44.774;20.506;2023-02-28T18:17:47;79.72;;;41.78;;
56130;SDS011;42000;44.774;20.506;2023-02-28T18:20:13;107.90;;;52.42;;
56130;SDS011;42000;44.774;20.506;2023-02-28T18:22:40;90.82;;;46.50;;
56130;SDS011;42000;44.774;20.506;2023-02-28T18:25:07;66.10;;;36.15;;
56130;SDS011;42000;44.774;20.506;2023-02-28T18:27:34;59.28;;;33.65;;
56130;SDS011;42000;44.774;20.506;2023-02-28T18:30:00;63.33;;;35.22;;
56130;SDS011;42000;44.774;20.506;2023-02-28T18:32:27;66.10;;;35.75;;
56130;SDS011;42000;44.774;20.506;2023-02-28T18:34:53;65.63;;;38.03;;
56130;SDS011;42000;44.774;20.506;2023-02-28T18:37:19;68.82;;;37.20;;
56130;SDS011;42000;44.774;20.506;2023-02-28T18:39:45;73.95;;;38.83;;
56130;SDS011;42000;44.774;20.506;2023-02-28T18:42:12;66.88;;;37.90;;
56130;SDS011;42000;44.774;20.506;2023-02-28T18:44:39;75.40;;;41.70;;
56130;SDS011;42000;44.774;20.506;2023-02-28T18:47:05;76.70;;;42.88;;
56130;SDS011;42000;44.774;20.506;2023-02-28T18:49:31;73.72;;;41.50;;
56130;SDS011;42000;44.774;20.506;2023-02-28T18:52:01;76.47;;;41.17;;
56130;SDS011;42000;44.774;20.506;2023-02-28T18:54:28;75.47;;;42.05;;
56130;SDS011;42000;44.774;20.506;2023-02-28T18:56:54;77.43;;;41.78;;
56130;SDS011;42000;44.774;20.506;2023-02-28T18:59:20;77.85;;;42.50;;
56130;SDS011;42000;44.774;20.506;2023-02-28T19:01:47;76.10;;;41.03;;
56130;SDS011;42000;44.774;20.506;2023-02-28T19:04:13;81.97;;;41.58;;
56130;SDS011;42000;44.774;20.506;2023-02-28T19:06:39;74.38;;;39.20;;
56130;SDS011;42000;44.774;20.506;2023-02-28T19:09:06;80.22;;;40.83;;
56130;SDS011;42000;44.774;20.506;2023-02-28T19:11:33;80.35;;;43.63;;
56130;SDS011;42000;44.774;20.506;2023-02-28T19:13:59;84.32;;;43.08;;
56130;SDS011;42000;44.774;20.506;2023-02-28T19:16:26;75.30;;;41.33;;
56130;SDS011;42000;44.774;20.506;2023-02-28T19:18:52;77.97;;;38.63;;
56130;SDS011;42000;44.774;20.506;2023-02-28T19:21:19;77.72;;;37.72;;
56130;SDS011;42000;44.774;20.506;2023-02-28T19:23:46;83.95;;;40.95;;
56130;SDS011;42000;44.774;20.506;2023-02-28T19:26:16;83.57;;;40.50;;
56130;SDS011;42000;44.774;20.506;2023-02-28T19:28:43;87.55;;;41.17;;
56130;SDS011;42000;44.774;20.506;2023-02-28T19:31:13;81.65;;;39.67;;
56130;SDS011;42000;44.774;20.506;2023-02-28T19:33:40;80.88;;;39.58;;
56130;SDS011;42000;44.774;20.506;2023-02-28T19:36:07;80.78;;;39.17;;
56130;SDS011;42000;44.774;20.506;2023-02-28T19:38:33;86.20;;;40.15;;
56130;SDS011;42000;44.774;20.506;2023-02-28T19:41:00;86.85;;;41.70;;
56130;SDS011;42000;44.774;20.506;2023-02-28T19:43:26;86.95;;;42.13;;
56130;SDS011;42000;44.774;20.506;2023-02-28T19:45:52;92.28;;;46.00;;
56130;SDS011;42000;44.774;20.506;2023-02-28T19:48:18;90.05;;;43.97;;
56130;SDS011;42000;44.774;20.506;2023-02-28T19:50:49;92.82;;;43.78;;
56130;SDS011;42000;44.774;20.506;2023-02-28T19:53:15;98.82;;;45.58;;
56130;SDS011;42000;44.774;20.506;2023-02-28T19:55:41;90.78;;;43.00;;
56130;SDS011;42000;44.774;20.506;2023-02-28T19:58:07;95.65;;;43.38;;
56130;SDS011;42000;44.774;20.506;2023-02-28T20:00:34;103.28;;;46.10;;
56130;SDS011;42000;44.774;20.506;2023-02-28T20:03:00;94.53;;;44.33;;
56130;SDS011;42000;44.774;20.506;2023-02-28T20:05:26;93.88;;;40.17;;
56130;SDS011;42000;44.774;20.506;2023-02-28T20:07:52;81.78;;;38.95;;
56130;SDS011;42000;44.774;20.506;2023-02-28T20:10:18;79.40;;;37.75;;
56130;SDS011;42000;44.774;20.506;2023-02-28T20:12:44;77.63;;;37.55;;
56130;SDS011;42000;44.774;20.506;2023-02-28T20:15:10;76.22;;;38.30;;
56130;SDS011;42000;44.774;20.506;2023-02-28T20:17:36;78.93;;;38.80;;
56130;SDS011;42000;44.774;20.506;2023-02-28T20:20:04;79.97;;;36.97;;
56130;SDS011;42000;44.774;20.506;2023-02-28T20:22:33;74.25;;;36.17;;
56130;SDS011;42000;44.774;20.506;2023-02-28T20:25:00;71.97;;;34.67;;
56130;SDS011;42000;44.774;20.506;2023-02-28T20:27:26;76.70;;;35.83;;
56130;SDS011;42000;44.774;20.506;2023-02-28T20:29:52;77.72;;;35.30;;
56130;SDS011;42000;44.774;20.506;2023-02-28T20:32:18;90.47;;;42.28;;
56130;SDS011;42000;44.774;20.506;2023-02-28T20:34:44;66.30;;;34.10;;
56130;SDS011;42000;44.774;20.506;2023-02-28T20:37:10;63.92;;;31.98;;
56130;SDS011;42000;44.774;20.506;2023-02-28T20:39:36;67.28;;;32.67;;
56130;SDS011;42000;44.774;20.506;2023-02-28T20:42:02;61.22;;;31.20;;
56130;SDS011;42000;44.774;20.506;2023-02-28T20:44:28;65.35;;;34.72;;
56130;SDS011;42000;44.774;20.506;2023-02-28T20:46:54;61.80;;;31.15;;
56130;SDS011;42000;44.774;20.506;2023-02-28T20:49:20;66.95;;;33.90;;
56130;SDS011;42000;44.774;20.506;2023-02-28T20:51:47;62.35;;;29.88;;
56130;SDS011;42000;44.774;20.506;2023-02-28T20:54:13;58.67;;;28.42;;
56130;SDS011;42000;44.774;20.506;2023-02-28T20:56:40;59.53;;;29.92;;
56130;SDS011;42000;44.774;20.506;2023-02-28T20:59:06;60.05;;;30.20;;
56130;SDS011;42000;44.774;20.506;2023-02-28T21:01:34;60.17;;;30.45;;
56130;SDS011;42000;44.774;20.506;2023-02-28T21:04:02;64.47;;;30.85;;
56130;SDS011;42000;44.774;20.506;2023-02-28T21:06:30;58.67;;;29.70;;
56130;SDS011;42000;44.774;20.506;2023-02-28T21:08:57;58.20;;;29.63;;
56130;SDS011;42000;44.774;20.506;2023-02-28T21:11:27;52.42;;;27.75;;
56130;SDS011;42000;44.774;20.506;2023-02-28T21:13:54;61.63;;;29.50;;
56130;SDS011;42000;44.774;20.506;2023-02-28T21:16:23;52.95;;;27.13;;
56130;SDS011;42000;44.774;20.506;2023-02-28T21:18:49;54.72;;;27.83;;
56130;SDS011;42000;44.774;20.506;2023-02-28T21:21:18;48.35;;;24.67;;
56130;SDS011;42000;44.774;20.506;2023-02-28T21:23:44;52.17;;;27.10;;
56130;SDS011;42000;44.774;20.506;2023-02-28T21:26:14;55.72;;;29.10;;
56130;SDS011;42000;44.774;20.506;2023-02-28T21:28:40;60.90;;;29.95;;
56130;SDS011;42000;44.774;20.506;2023-02-28T21:31:09;60.22;;;30.17;;
56130;SDS011;42000;44.774;20.506;2023-02-28T21:33:36;59.03;;;29.48;;
56130;SDS011;42000;44.774;20.506;2023-02-28T21:36:06;64.60;;;29.85;;
56130;SDS011;42000;44.774;20.506;2023-02-28T21:38:33;54.72;;;27.55;;
56130;SDS011;42000;44.774;20.506;2023-02-28T21:41:07;54.50;;;27.65;;
56130;SDS011;42000;44.774;20.506;2023-02-28T21:43:34;59.08;;;28.05;;
56130;SDS011;42000;44.774;20.506;2023-02-28T21:46:01;55.65;;;27.63;;
56130;SDS011;42000;44.774;20.506;2023-02-28T21:48:27;55.70;;;28.08;;
56130;SDS011;42000;44.774;20.506;2023-02-28T21:50:57;56.40;;;28.10;;
56130;SDS011;42000;44.774;20.506;2023-02-28T21:53:25;51.78;;;26.70;;
56130;SDS011;42000;44.774;20.506;2023-02-28T21:55:52;47.00;;;25.15;;
56130;SDS011;42000;44.774;20.506;2023-02-28T21:58:18;47.88;;;25.90;;
56130;SDS011;42000;44.774;20.506;2023-02-28T22:00:44;62.63;;;34.22;;
56130;SDS011;42000;44.774;20.506;2023-02-28T22:03:10;60.92;;;34.30;;
56130;SDS011;42000;44.774;20.506;2023-02-28T22:05:37;60.60;;;33.88;;
56130;SDS011;42000;44.774;20.506;2023-02-28T22:08:03;67.15;;;36.88;;
56130;SDS011;42000;44.774;20.506;2023-02-28T22:10:29;74.35;;;38.83;;
56130;SDS011;42000;44.774;20.506;2023-02-28T22:12:55;69.82;;;36.53;;
